Flight Track Log - Related Links

Times and Time Zones

All times are in EST time to prevent confusion due to time zone crossing. See the UAL33 flight status page for this flight to view local times or setup timezone preferences in your user account.

Time Position Orientation Groundspeed Altitude Reporting Facility
EST Latitude Longitude Course Direction KTS MPH feet Rate Location/Type
Thu 04:49:00 AM 37.1594 143.0427 98° East  Level Estimated
Thu 04:50:00 AM 37.2446 143.2119 94° East  Level Estimated
Thu 04:51:00 AM 37.1685 143.3879 118° Southeast  Level FlightAware Approximate
Thu 04:52:00 AM 37.0922 143.5634 119° Southeast  Level FlightAware Approximate
Thu 04:53:00 AM 37.0156 143.7387 119° Southeast  Level FlightAware Approximate
Thu 04:54:00 AM 36.9387 143.9135 119° Southeast  Level FlightAware Approximate
Thu 04:55:00 AM 36.8616 144.0881 119° Southeast  Level FlightAware Approximate
Thu 04:56:00 AM 36.7843 144.2622 119° Southeast  Level FlightAware Approximate
Thu 04:57:00 AM 36.7067 144.4361 119° Southeast  Level FlightAware Approximate
Thu 04:58:00 AM 36.6288 144.6095 119° Southeast  Level FlightAware Approximate
Thu 04:59:00 AM 36.5507 144.7826 119° Southeast  Level FlightAware Approximate
Thu 05:00:00 AM 36.4723 144.9554 119° Southeast  Level FlightAware Approximate
Thu 05:01:00 AM 36.3937 145.1278 119° Southeast  Level FlightAware Approximate
Thu 05:02:00 AM 36.3148 145.2999 120° Southeast  Level FlightAware Approximate
Thu 05:03:00 AM 36.2357 145.4716 120° Southeast  Level FlightAware Approximate
Thu 05:04:00 AM 36.1564 145.6430 120° Southeast  Level FlightAware Approximate
Thu 05:05:00 AM 36.0768 145.8140 120° Southeast  Level FlightAware Approximate
Thu 05:06:00 AM 35.9969 145.9847 120° Southeast  Level FlightAware Approximate
Thu 05:07:00 AM 35.9168 146.1550 120° Southeast  Level FlightAware Approximate
Thu 05:08:00 AM 35.8361 146.3260 120° Southeast  Level FlightAware Approximate
Thu 05:09:00 AM 35.7550 146.4966 120° Southeast  Level FlightAware Approximate
Thu 05:10:00 AM 35.6738 146.6668 120° Southeast  Level FlightAware Approximate
Thu 05:11:00 AM 35.7561 146.8363 80° East  Level Estimated
Thu 05:12:00 AM 35.7184 147.0284 104° East  Level FlightAware Approximate
Thu 05:13:00 AM 35.6805 147.2202 104° East  Level FlightAware Approximate
Thu 05:14:00 AM 35.6422 147.4119 104° East  Level FlightAware Approximate
Thu 05:15:00 AM 35.6036 147.6034 104° East  Level FlightAware Approximate
Thu 05:16:00 AM 35.5648 147.7947 104° East  Level FlightAware Approximate
Thu 05:17:00 AM 35.5256 147.9858 104° East  Level FlightAware Approximate
Thu 05:18:00 AM 35.4861 148.1767 104° East  Level FlightAware Approximate
Thu 05:19:00 AM 35.4464 148.3674 104° East  Level FlightAware Approximate
Thu 05:20:00 AM 35.4063 148.5580 104° East  Level FlightAware Approximate
Thu 05:21:00 AM 35.3659 148.7484 105° East  Level FlightAware Approximate
Thu 05:22:00 AM 35.3252 148.9385 105° East  Level FlightAware Approximate
Thu 05:23:00 AM 35.2843 149.1285 105° East  Level FlightAware Approximate
Thu 05:24:00 AM 35.2430 149.3183 105° East  Level FlightAware Approximate
Thu 05:25:00 AM 35.2015 149.5079 105° East  Level FlightAware Approximate
Thu 05:26:00 AM 35.2809 149.6784 82° East  Level Estimated
Thu 05:27:00 AM 35.2837 149.8748 89° East  Level FlightAware Approximate
Thu 05:28:00 AM 35.2863 150.0712 89° East  Level FlightAware Approximate
Thu 05:29:00 AM 35.2885 150.2677 89° East  Level FlightAware Approximate
Thu 05:30:00 AM 35.2904 150.4641 89° East  Level FlightAware Approximate
Thu 05:31:00 AM 35.2920 150.6606 89° East  Level FlightAware Approximate
Thu 05:32:00 AM 35.2932 150.8570 89° East  Level FlightAware Approximate
Thu 05:33:00 AM 35.2942 151.0535 90° East  Level FlightAware Approximate
Thu 05:34:00 AM 35.2948 151.2500 90° East  Level FlightAware Approximate
Thu 05:35:00 AM 35.2951 151.4464 90° East  Level FlightAware Approximate
Thu 05:36:00 AM 35.2951 151.6429 90° East  Level FlightAware Approximate
Thu 05:37:00 AM 35.2948 151.8394 90° East  Level FlightAware Approximate
Thu 05:38:00 AM 35.2941 152.0358 90° East  Level FlightAware Approximate
Thu 05:39:00 AM 35.2932 152.2323 90° East  Level FlightAware Approximate
Thu 05:40:00 AM 35.2919 152.4288 90° East  Level FlightAware Approximate
Thu 05:41:00 AM 35.2903 152.6252 91° East  Level FlightAware Approximate
Thu 05:42:00 AM 35.2884 152.8217 91° East  Level FlightAware Approximate
Thu 05:43:00 AM 35.2861 153.0181 91° East  Level FlightAware Approximate
Thu 05:44:00 AM 35.2836 153.2145 91° East  Level FlightAware Approximate
Thu 05:45:00 AM 35.2807 153.4109 91° East  Level FlightAware Approximate
Thu 05:46:00 AM 35.2775 153.6073 91° East  Level FlightAware Approximate
Thu 05:47:00 AM 35.2740 153.8037 91° East  Level FlightAware Approximate
Thu 05:48:00 AM 35.2702 154.0000 91° East  Level FlightAware Approximate
Thu 05:49:00 AM 35.2661 154.1964 91° East  Level FlightAware Approximate
Thu 05:50:00 AM 35.2616 154.3927 92° East  Level FlightAware Approximate
Thu 05:51:00 AM 35.2569 154.5890 92° East  Level FlightAware Approximate
Thu 05:52:00 AM 35.2518 154.7853 92° East  Level FlightAware Approximate
Thu 05:53:00 AM 35.2464 154.9815 92° East  Level FlightAware Approximate
Thu 05:54:00 AM 35.2406 155.1777 92° East  Level FlightAware Approximate
Thu 05:55:00 AM 35.2346 155.3739 92° East  Level FlightAware Approximate
Thu 05:56:00 AM 35.2282 155.5701 92° East  Level FlightAware Approximate
Thu 05:57:00 AM 35.2216 155.7662 92° East  Level FlightAware Approximate
Thu 05:58:00 AM 35.2146 155.9623 92° East  Level FlightAware Approximate
Thu 05:59:00 AM 35.2073 156.1584 93° East  Level FlightAware Approximate
Thu 06:00:00 AM 35.1997 156.3544 93° East  Level FlightAware Approximate
Thu 06:01:00 AM 35.1917 156.5504 93° East  Level FlightAware Approximate
Thu 06:02:00 AM 35.2635 156.7259 73° East  Level Estimated
Thu 06:03:00 AM 35.2899 156.9197 80° East  Level FlightAware Approximate
Thu 06:04:00 AM 35.3159 157.1136 81° East  Level FlightAware Approximate
Thu 06:05:00 AM 35.3416 157.3076 81° East  Level FlightAware Approximate
Thu 06:06:00 AM 35.3670 157.5017 81° East  Level FlightAware Approximate
Thu 06:07:00 AM 35.3921 157.6959 81° East  Level FlightAware Approximate
Thu 06:08:00 AM 35.4169 157.8903 81° East  Level FlightAware Approximate
Thu 06:09:00 AM 35.4413 158.0848 81° East  Level FlightAware Approximate
Thu 06:10:00 AM 35.4655 158.2794 81° East  Level FlightAware Approximate
Thu 06:11:00 AM 35.4894 158.4741 81° East  Level FlightAware Approximate
Thu 06:12:00 AM 35.5129 158.6690 82° East  Level FlightAware Approximate
Thu 06:13:00 AM 35.5361 158.8639 82° East  Level FlightAware Approximate
Thu 06:14:00 AM 35.5590 159.0590 82° East  Level FlightAware Approximate
Thu 06:15:00 AM 35.5816 159.2542 82° East  Level FlightAware Approximate
Thu 06:16:00 AM 35.6039 159.4495 82° East  Level FlightAware Approximate
Thu 06:17:00 AM 35.6259 159.6449 82° East  Level FlightAware Approximate
Thu 06:18:00 AM 35.6475 159.8404 82° East  Level FlightAware Approximate
Thu 06:19:00 AM 35.6688 160.0360 82° East  Level FlightAware Approximate
Thu 06:20:00 AM 35.6898 160.2317 82° East  Level FlightAware Approximate
Thu 06:21:00 AM 35.7105 160.4275 83° East  Level FlightAware Approximate
Thu 06:22:00 AM 35.7309 160.6234 83° East  Level FlightAware Approximate
Thu 06:23:00 AM 35.7510 160.8194 83° East  Level FlightAware Approximate
Thu 06:24:00 AM 35.7707 161.0155 83° East  Level FlightAware Approximate
Thu 06:25:00 AM 35.7901 161.2117 83° East  Level FlightAware Approximate
Thu 06:26:00 AM 35.8092 161.4080 83° East  Level FlightAware Approximate
Thu 06:27:00 AM 35.8280 161.6044 83° East  Level FlightAware Approximate
Thu 06:28:00 AM 35.8465 161.8009 83° East  Level FlightAware Approximate
Thu 06:29:00 AM 35.9120 161.9816 76° East  Level Estimated
Thu 06:30:00 AM 35.9450 162.1753 78° East  Level FlightAware Approximate
Thu 06:31:00 AM 35.9778 162.3693 78° East  Level FlightAware Approximate
Thu 06:32:00 AM 36.0102 162.5634 78° East  Level FlightAware Approximate
Thu 06:33:00 AM 36.0423 162.7576 78° East  Level FlightAware Approximate
Thu 06:34:00 AM 36.0741 162.9521 79° East  Level FlightAware Approximate
Thu 06:35:00 AM 36.1055 163.1467 79° East  Level FlightAware Approximate
Thu 06:36:00 AM 36.1367 163.3414 79° East  Level FlightAware Approximate
Thu 06:37:00 AM 36.1675 163.5363 79° East  Level FlightAware Approximate
Thu 06:38:00 AM 36.1980 163.7313 79° East  Level FlightAware Approximate
Thu 06:39:00 AM 36.2282 163.9265 79° East  Level FlightAware Approximate
Thu 06:40:00 AM 36.2581 164.1218 79° East  Level FlightAware Approximate
Thu 06:41:00 AM 36.2877 164.3173 79° East  Level FlightAware Approximate
Thu 06:42:00 AM 36.3140 164.4929 79° East  Level FlightAware Approximate
Thu 06:43:00 AM 36.3400 164.6686 80° East  Level FlightAware Approximate
Thu 06:44:00 AM 36.3659 164.8456 80° East  Level FlightAware Approximate
Thu 06:45:00 AM 36.3916 165.0227 80° East  Level FlightAware Approximate
Thu 06:45:29 AM 36.6167 167.6333 78° East 637 733 38,000  Level Oakland Oceanic (ODAPS)
Thu 06:56:53 AM 37.0167 170.2333 87° East 658 757 38,000  Level Oakland Oceanic (ODAPS)
Thu 06:59:13 AM 37.0333 170.7833 87° East 673 774 38,000  Level Oakland Oceanic (ODAPS)
Thu 07:13:05 AM 37.1000 174.0167 89° East 668 769 38,000  Level Oakland Oceanic (ODAPS)
Thu 07:26:56 AM 37.0833 177.2000 91° East 659 758 38,000  Level Oakland Oceanic (ODAPS)
Thu 07:39:11 AM 37.0000 180.0000 94° East 656 755 38,000  Level Oakland Oceanic (ODAPS)
Thu 07:40:49 AM 36.9833 -179.6167 94° East 654 753 38,000  Level Oakland Oceanic (ODAPS)
Thu 07:54:41 AM 36.7500 -176.4667 96° East 654 753 38,000  Level Oakland Oceanic (ODAPS)
Thu 08:08:33 AM 36.4333 -173.3667 98° East 635 731 38,000  Level Oakland Oceanic (ODAPS)
Thu 08:22:25 AM 36.0500 -170.4000 99° East 632 727 38,000  Level Oakland Oceanic (ODAPS)
Thu 08:24:20 AM 36.0000 -170.0000 87° East 614 707 38,000  Level Oakland Oceanic (ODAPS)
Thu 08:36:19 AM 36.0833 -167.5000 89° East 603 694 38,000  Level Oakland Oceanic (ODAPS)
Thu 08:50:10 AM 36.1000 -164.6500 90° East 601 692 38,000 36 Level Oakland Oceanic (ODAPS)
Thu 09:04:02 AM 36.0667 -161.7833 92° East 595 685 39,000 44 Climbing Oakland Oceanic (ODAPS)
Thu 09:13:01 AM 36.0000 -160.0000 73° East 572 658 39,000  Level Oakland Oceanic (ODAPS)
Thu 09:17:54 AM 36.2167 -159.0833 73° East 564 649 39,000  Level Oakland Oceanic (ODAPS)
Thu 09:31:46 AM 36.8167 -156.5000 75° East 562 647 39,000  Level Oakland Oceanic (ODAPS)
Thu 09:45:38 AM 37.3333 -153.9333 77° East 555 639 39,000  Level Oakland Oceanic (ODAPS)
Thu 09:59:30 AM 37.8000 -151.3167 79° East 556 640 39,000 48 Level Oakland Oceanic (ODAPS)
Thu 10:06:22 AM 38.0000 -150.0000 80° East 553 636 40,000 72 Climbing Oakland Oceanic (ODAPS)
Thu 10:13:23 AM 38.1833 -148.6167 80° East 550 633 40,000  Level Oakland Oceanic (ODAPS)
Thu 10:27:14 AM 38.5167 -145.9333 82° East 544 626 40,000  Level Oakland Oceanic (ODAPS)
Thu 10:41:06 AM 38.7667 -143.2500 84° East 547 629 40,000  Level Oakland Oceanic (ODAPS)
Thu 10:54:58 AM 38.9667 -140.6167 86° East 514 592 40,000  Level Oakland Oceanic (ODAPS)
Thu 10:58:24 AM 39.0000 -140.0000 87° East 516 594 40,000  Level Oakland Oceanic (ODAPS)
Thu 11:08:50 AM 39.0667 -138.0667 88° East 512 589 40,000  Level Oakland Oceanic (ODAPS)
Thu 11:22:42 AM 39.1000 -135.5333 90° East 511 588 40,000  Level Oakland Oceanic (ODAPS)
Thu 11:36:35 AM 39.0833 -133.0000 91° East 511 588 40,000  Level Oakland Oceanic (ODAPS)
Thu 11:50:26 AM 39.0167 -130.4833 92° East 512 589 40,000  Level Oakland Oceanic (ODAPS)
Thu 11:53:06 AM 39.0000 -130.0000 102° East 509 586 40,000 73 Level Oakland Oceanic (ODAPS)
Thu 12:04:13 PM 38.6500 -128.0167 103° East 509 586 41,000 71 Climbing Oakland Oceanic (ODAPS)
Thu 12:07:16 PM 38.5594 -127.4883 111° Southeast 512 589 41,000 -264 Level Oakland Center
Thu 12:08:00 PM 38.5334 -127.3506 104° East 509 586 40,000 -97 Descending FlightAware Transoceanic
Thu 12:08:18 PM 38.5272 -127.3122 103° East 511 588 40,900  Climbing Oakland Center
Thu 12:09:00 PM 38.5001 -127.1752 104° East 509 586 40,000  Descending FlightAware Transoceanic
Thu 12:09:19 PM 38.4928 -127.1358 104° East 512 589 40,900 1,000 Climbing Oakland Center
Thu 12:10:00 PM 38.4667 -127.0000 111° Southeast 509 586 41,000 97 Climbing FlightAware Transoceanic
Thu 12:10:21 PM 38.4558 -126.9619 105° East 511 588 41,000  Level Oakland Center
Thu 12:11:00 PM 38.4158 -126.8324 111° Southeast 509 586 41,000  Level FlightAware Transoceanic
Thu 12:11:22 PM 38.4094 -126.7922 109° East 510 587 41,000  Level Oakland Center
Thu 12:12:00 PM 38.3646 -126.6650 111° Southeast 509 586 41,000  Level FlightAware Transoceanic
Thu 12:12:24 PM 38.3536 -126.5869 109° East 511 588 41,000  Level Oakland Center
Thu 12:13:00 PM 38.3132 -126.4979 111° Southeast 509 586 41,000  Level FlightAware Transoceanic
Thu 12:13:25 PM 38.3061 -126.4164 109° East 512 589 41,000  Level Oakland Center
Thu 12:14:27 PM 38.2594 -126.2469 109° East 511 588 41,000 -49 Level Oakland Center
Thu 12:15:28 PM 38.2131 -126.0817 110° East 512 589 40,900  Descending Oakland Center
Thu 12:16:30 PM 38.1647 -125.9111 110° East 512 589 41,000 49 Climbing Oakland Center
Thu 12:17:31 PM 38.1178 -125.7408 109° East 513 590 41,000  Level Oakland Center
Thu 12:18:33 PM 38.0692 -125.5700 110° East 515 593 41,000  Level Oakland Center
Thu 12:19:34 PM 38.0114 -125.3672 110° East 512 589 41,000  Level Oakland Center
Thu 12:20:36 PM 37.9614 -125.1972 110° East 515 593 41,000  Level Oakland Center
Thu 12:21:37 PM 37.9131 -125.0286 110° East 513 590 41,000  Level Oakland Center
Thu 12:22:39 PM 37.8644 -124.8597 110° East 514 592 41,000  Level Oakland Center
Thu 12:23:40 PM 37.8144 -124.6911 111° Southeast 514 592 41,000 -49 Level Oakland Center
Thu 12:24:42 PM 37.7644 -124.5219 110° East 515 593 40,900  Descending Oakland Center
Thu 12:25:43 PM 37.7156 -124.3550 110° East 511 588 41,000 49 Climbing Oakland Center
Thu 12:26:45 PM 37.6642 -124.1858 111° Southeast 516 594 41,000 -49 Level Oakland Center
Thu 12:27:46 PM 37.6033 -123.9833 111° Southeast 518 596 40,900  Descending Oakland Center
Thu 12:28:47 PM 37.5519 -123.8133 111° Southeast 521 600 41,000 23 Climbing Oakland Center
Thu 12:32:06 PM 37.4794 -123.5780 111° Southeast 519 597 41,000  Level FlightAware ADS-B
Thu 12:34:03 PM 37.2840 -122.9470 111° Southeast 522 601 41,000  Level FlightAware ADS-B
Thu 12:35:50 PM 37.1364 -122.6374 121° Southeast 523 602 41,000  Level FlightAware ADS-B
Thu 12:37:27 PM 37.0052 -122.3950 124° Southeast 521 600 41,000 -254 Level FlightAware ADS-B
Thu 12:42:32 PM 36.5907 -121.6390 124° Southeast 516 594 39,300 -460 Descending FlightAware ADS-B
Thu 12:43:32 PM 36.5035 -121.4960 127° Southeast 515 593 38,200 -1,029 Descending FlightAware ADS-B
Thu 12:43:42 PM 36.4883 -121.4730 129° Southeast 510 587 38,100 -618 Descending FlightAware ADS-B
Thu 12:44:40 PM 36.4036 -121.3440 129° Southeast 503 579 37,500 -729 Descending FlightAware ADS-B
Thu 12:46:02 PM 36.2883 -121.1680 129° Southeast 486 559 36,400 -750 Descending FlightAware ADS-B
Thu 12:47:12 PM 36.2006 -121.0431 129° Southeast 472 543 35,600 -687 Descending Oakland Center
Thu 12:48:13 PM 36.1197 -120.9186 129° Southeast 466 536 34,900 -295 Descending Oakland Center
Thu 12:49:14 PM 36.0389 -120.7967 129° Southeast 461 531 35,000 49 Climbing Oakland Center
Thu 12:50:16 PM 35.9558 -120.6733 130° Southeast 466 536 35,000  Level Oakland Center
Thu 12:51:17 PM 35.8739 -120.5497 129° Southeast 464 534 35,000  Level Oakland Center
Thu 12:52:18 PM 35.7917 -120.4278 130° Southeast 462 532 35,000  Level Oakland Center
Thu 12:53:19 PM 35.7089 -120.3036 129° Southeast 464 534 35,000  Level Oakland Center
Thu 12:54:21 PM 35.6086 -120.1550 130° Southeast 465 535 35,000  Level Oakland Center
Thu 12:55:22 PM 35.5114 -120.0458 138° Southeast 471 542 35,000 -49 Level Oakland Center
Thu 12:56:23 PM 35.4106 -119.9436 140° Southeast 467 537 34,900 -836 Descending Oakland Center
Thu 12:57:24 PM 35.3106 -119.8403 140° Southeast 468 539 33,300 -1,561 Descending Oakland Center
Thu 12:58:26 PM 35.2125 -119.7414 141° Southeast 459 528 31,700 -1,610 Descending Oakland Center
Thu 12:59:27 PM 35.1203 -119.6475 140° Southeast 436 502 30,000 -1,623 Descending Oakland Center
Thu 01:00:28 PM 35.0311 -119.5581 141° Southeast 419 482 28,400 -1,561 Descending Oakland Center
Thu 01:01:30 PM 34.9450 -119.4694 140° Southeast 407 468 26,800 -1,561 Descending Oakland Center
Thu 01:02:31 PM 34.8614 -119.3850 140° Southeast 395 455 25,200 -1,623 Descending Oakland Center
Thu 01:03:32 PM 34.7769 -119.2992 140° Southeast 395 455 23,500 -1,610 Descending Oakland Center
Thu 01:04:34 PM 34.6939 -119.2161 141° Southeast 390 449 21,900 -1,691 Descending Oakland Center
Thu 01:06:01 PM 34.5642 -119.0883 141° Southeast 382 440 19,300 -1,691 Descending Los Angeles Center
Thu 01:07:03 PM 34.4864 -119.0081 140° Southeast 368 423 17,700 -1,548 Descending Los Angeles Center
Thu 01:08:05 PM 34.4075 -118.9294 141° Southeast 366 421 16,100 -1,500 Descending Los Angeles Center
Thu 01:09:07 PM 34.3233 -118.8678 149° Southeast 352 405 14,600 -1,173 Descending Los Angeles Center
Thu 01:14:39 PM 34.0155 -118.5119 149° Southeast 279 321 8,400 -1,102 Descending FlightAware ADS-B
Thu 01:15:01 PM 34.0124 -118.4796 97° East 279 321 8,100 -951 Descending FlightAware ADS-B
Thu 01:16:01 PM 34.0180 -118.3849 86° East 276 318 7,100 -1,098 Descending FlightAware ADS-B
Thu 01:16:23 PM 34.0218 -118.3480 83° East 272 313 6,600 -1,350 Descending FlightAware ADS-B
Thu 01:16:41 PM 34.0244 -118.3224 83° East 272 313 6,200 -1,050 Descending FlightAware ADS-B
Thu 01:17:03 PM 34.0278 -118.2896 83° East 238 274 5,900 -857 Descending FlightAware ADS-B
Thu 01:18:26 PM 34.0375 -118.1883 83° East 224 258 4,700 -869 Descending Los Angeles Center
Thu 01:19:28 PM 34.0061 -118.1394 128° Southeast 210 242 3,800 -768 Descending Los Angeles Center
Thu 01:20:31 PM 33.9744 -118.1817 228° Southwest 202 232 3,100 -576 Descending Los Angeles Center
Thu 01:21:33 PM 33.9681 -118.2453 263° West 193 222 2,600 -677 Descending Los Angeles Center
Thu 01:22:35 PM 33.9619 -118.3075 263° West 190 219 1,700 -919 Descending Los Angeles Center
Thu 01:23:37 PM 33.9561 -118.3700 264° West 152 175 700 -774 Descending Los Angeles Center
Thu 01:24:39 PM 33.9514 -118.4175 263° West 145 167 100 -581 Descending Los Angeles Center

Login

Don't have an account? Register now (free) for customized features, flight alerts, and more!